Time;durP1;ratioP1;P1;durP2;ratioP2;P2;SDS_P1;SDS_P2;PMS_P1;PMS_P2;Temp;Humidity;BMP_temperature;BMP_pressure;BME280_temperature;BME280_humidity;BME280_pressure;Samples;Min_cycle;Max_cycle;Signal;HPM_P1;HPM_P2
2023/07/24 00:02:07;;;;;;;9.63;5.60;;;;;;;;;;4950691;29;20445;-90
2023/07/24 00:04:33;;;;;;;10.20;6.60;;;;;;;;;;4974656;28;20464;-90
2023/07/24 00:07:00;;;;;;;9.60;7.20;;;;;;;;;;4955585;28;20438;-90
2023/07/24 00:09:26;;;;;;;10.17;6.60;;;;;;;;;;4969010;28;20434;-90
2023/07/24 00:11:52;;;;;;;7.50;5.30;;;;;;;;;;4962173;28;20434;-90
2023/07/24 00:14:18;;;;;;;10.33;6.03;;;;;;;;;;4968171;28;20456;-89
2023/07/24 00:16:44;;;;;;;9.37;6.23;;;;;;;;;;4965119;28;20413;-91
2023/07/24 00:19:10;;;;;;;11.57;6.47;;;;;;;;;;4972961;28;20423;-91
2023/07/24 00:21:36;;;;;;;8.47;6.40;;;;;;;;;;4955683;28;20441;-91
2023/07/24 00:24:02;;;;;;;9.50;6.30;;;;;;;;;;4967040;28;20442;-87
2023/07/24 00:26:28;;;;;;;12.90;6.40;;;;;;;;;;4959480;28;20867;-88
2023/07/24 00:28:54;;;;;;;10.07;6.00;;;;;;;;;;4952672;29;20526;-88
2023/07/24 00:31:20;;;;;;;9.33;6.27;;;;;;;;;;4932299;29;20431;-88
2023/07/24 00:33:46;;;;;;;11.63;7.97;;;;;;;;;;4952861;28;20563;-87
2023/07/24 00:36:15;;;;;;;10.03;6.03;;;;;;;;;;4951702;28;20493;-87
2023/07/24 00:38:41;;;;;;;9.10;6.20;;;;;;;;;;4967139;28;20442;-88
2023/07/24 00:41:07;;;;;;;8.97;6.07;;;;;;;;;;4946678;28;20520;-88
2023/07/24 00:43:33;;;;;;;9.90;6.80;;;;;;;;;;4945648;28;20438;-90
2023/07/24 00:45:59;;;;;;;9.67;6.80;;;;;;;;;;4952836;28;20504;-91
2023/07/24 00:48:25;;;;;;;9.50;6.27;;;;;;;;;;4953302;28;20426;-91
2023/07/24 00:50:51;;;;;;;8.63;5.83;;;;;;;;;;4970169;28;20576;-91
2023/07/24 00:53:19;;;;;;;9.77;6.70;;;;;;;;;;4970057;28;20402;-90
2023/07/24 00:55:45;;;;;;;7.97;5.60;;;;;;;;;;4969731;28;20589;-90
2023/07/24 00:58:14;;;;;;;8.67;5.93;;;;;;;;;;4972160;28;21035;-89
2023/07/24 01:00:40;;;;;;;10.90;5.90;;;;;;;;;;4959412;29;20431;-89
2023/07/24 01:03:06;;;;;;;10.67;6.40;;;;;;;;;;4968544;28;20436;-90
2023/07/24 01:05:32;;;;;;;10.00;7.00;;;;;;;;;;4952103;29;20462;-90
2023/07/24 01:07:58;;;;;;;10.00;6.43;;;;;;;;;;4954161;28;20422;-90
2023/07/24 01:10:24;;;;;;;10.73;6.53;;;;;;;;;;4952131;28;20438;-90
2023/07/24 01:12:50;;;;;;;14.27;6.40;;;;;;;;;;4950284;28;20980;-90
2023/07/24 01:15:22;;;;;;;11.90;6.73;;;;;;;;;;4976373;28;20460;-90
2023/07/24 01:17:48;;;;;;;8.10;5.80;;;;;;;;;;4970151;28;20429;-90
2023/07/24 01:20:18;;;;;;;9.20;6.57;;;;;;;;;;4970166;28;20449;-90
2023/07/24 01:22:48;;;;;;;9.60;5.37;;;;;;;;;;4968086;28;20440;-87
2023/07/24 01:25:29;;;;;;;9.17;5.53;;;;;;;;;;4961218;28;20818;-85
2023/07/24 01:27:55;;;;;;;9.20;6.10;;;;;;;;;;4950516;28;20488;-86
2023/07/24 01:30:21;;;;;;;6.63;5.40;;;;;;;;;;4960998;28;20505;-87
2023/07/24 01:32:47;;;;;;;12.17;7.33;;;;;;;;;;4953078;28;20477;-91
2023/07/24 01:35:13;;;;;;;9.53;6.30;;;;;;;;;;4949740;28;20430;-87
2023/07/24 01:37:40;;;;;;;11.77;7.07;;;;;;;;;;4947994;28;20914;-87
2023/07/24 01:40:09;;;;;;;8.60;6.30;;;;;;;;;;4966385;28;20433;-87
2023/07/24 01:42:35;;;;;;;9.50;6.30;;;;;;;;;;4948007;28;20435;-87
2023/07/24 01:45:02;;;;;;;9.07;5.97;;;;;;;;;;4963530;28;20462;-86
2023/07/24 01:47:28;;;;;;;10.90;6.70;;;;;;;;;;4945733;29;20435;-87
2023/07/24 01:49:54;;;;;;;8.87;6.33;;;;;;;;;;4929627;29;20466;-87
2023/07/24 01:52:20;;;;;;;9.47;6.50;;;;;;;;;;4945853;28;20442;-87
2023/07/24 01:54:46;;;;;;;8.17;5.50;;;;;;;;;;4960588;28;20505;-88
2023/07/24 01:57:12;;;;;;;7.40;6.07;;;;;;;;;;4945791;29;20947;-87
2023/07/24 01:59:38;;;;;;;8.50;5.40;;;;;;;;;;4927460;29;20518;-86
2023/07/24 02:02:04;;;;;;;8.83;7.07;;;;;;;;;;4963212;28;20483;-89
2023/07/24 02:04:30;;;;;;;10.70;7.07;;;;;;;;;;4945267;28;20572;-90
2023/07/24 02:06:56;;;;;;;10.73;6.57;;;;;;;;;;4951718;28;20442;-89
2023/07/24 02:09:22;;;;;;;9.43;6.40;;;;;;;;;;4948890;28;20426;-86
2023/07/24 02:11:48;;;;;;;9.70;6.30;;;;;;;;;;4951525;28;20421;-90
2023/07/24 02:14:14;;;;;;;10.43;6.70;;;;;;;;;;4953235;29;20431;-90
2023/07/24 02:16:40;;;;;;;10.20;6.00;;;;;;;;;;4945211;28;21076;-88
2023/07/24 02:19:06;;;;;;;8.70;5.63;;;;;;;;;;4968116;28;20422;-90
2023/07/24 02:21:32;;;;;;;10.87;6.07;;;;;;;;;;4951753;28;20414;-90
2023/07/24 02:23:58;;;;;;;10.60;6.17;;;;;;;;;;4941799;28;20442;-89
2023/07/24 02:26:24;;;;;;;10.37;7.07;;;;;;;;;;4950691;28;20470;-90
2023/07/24 02:28:50;;;;;;;10.10;6.13;;;;;;;;;;4952094;28;20430;-90
2023/07/24 02:31:16;;;;;;;9.37;6.37;;;;;;;;;;4951322;29;20466;-90
2023/07/24 02:33:42;;;;;;;9.43;6.47;;;;;;;;;;4964243;28;20484;-90
2023/07/24 02:36:08;;;;;;;9.17;5.87;;;;;;;;;;4953393;28;20457;-90
2023/07/24 02:38:34;;;;;;;10.20;6.13;;;;;;;;;;4966825;28;20509;-90
2023/07/24 02:41:00;;;;;;;11.20;6.90;;;;;;;;;;4965725;28;20481;-90
2023/07/24 02:43:26;;;;;;;11.23;5.83;;;;;;;;;;4955228;28;20448;-90
2023/07/24 02:45:52;;;;;;;8.70;6.17;;;;;;;;;;4950020;28;20549;-90
2023/07/24 02:48:18;;;;;;;9.37;6.20;;;;;;;;;;4952774;28;20460;-89
2023/07/24 02:50:44;;;;;;;9.17;6.23;;;;;;;;;;4966161;28;20429;-87
2023/07/24 02:53:10;;;;;;;9.13;6.33;;;;;;;;;;4962943;28;20425;-86
2023/07/24 02:55:36;;;;;;;8.77;6.20;;;;;;;;;;4962454;28;20520;-86
2023/07/24 02:58:02;;;;;;;13.20;7.30;;;;;;;;;;4964285;28;20448;-87
2023/07/24 03:00:28;;;;;;;8.30;5.47;;;;;;;;;;4962776;28;20441;-87
2023/07/24 03:02:54;;;;;;;9.27;6.30;;;;;;;;;;4963346;28;20422;-85
2023/07/24 03:05:22;;;;;;;8.23;5.30;;;;;;;;;;4966000;28;20477;-90
2023/07/24 03:07:48;;;;;;;7.97;6.07;;;;;;;;;;4947213;29;20438;-89
2023/07/24 03:10:14;;;;;;;9.63;6.23;;;;;;;;;;4957054;28;20436;-89
2023/07/24 03:12:40;;;;;;;10.30;5.90;;;;;;;;;;4968198;28;20532;-88
2023/07/24 03:15:06;;;;;;;10.77;6.50;;;;;;;;;;4948492;28;20945;-90
2023/07/24 03:17:32;;;;;;;9.30;6.23;;;;;;;;;;4946530;28;20422;-86
2023/07/24 03:19:58;;;;;;;14.33;6.63;;;;;;;;;;4946155;28;20452;-86
2023/07/24 03:22:24;;;;;;;9.50;5.97;;;;;;;;;;4944815;28;20430;-87
2023/07/24 03:24:50;;;;;;;7.33;5.17;;;;;;;;;;4960007;28;20461;-86
2023/07/24 03:27:16;;;;;;;7.40;5.30;;;;;;;;;;4934955;28;20481;-85
2023/07/24 03:29:42;;;;;;;7.10;5.80;;;;;;;;;;4937210;28;20450;-85
2023/07/24 03:32:08;;;;;;;11.40;6.20;;;;;;;;;;4937112;28;20764;-86
2023/07/24 03:34:34;;;;;;;9.00;6.13;;;;;;;;;;4960072;28;20940;-87
2023/07/24 03:37:00;;;;;;;10.20;6.40;;;;;;;;;;4954318;28;20426;-87
2023/07/24 03:39:26;;;;;;;11.00;6.77;;;;;;;;;;4945455;28;21030;-86
2023/07/24 03:41:52;;;;;;;9.27;6.17;;;;;;;;;;4932071;28;20423;-87
2023/07/24 03:44:18;;;;;;;9.30;5.90;;;;;;;;;;4961471;28;20485;-87
2023/07/24 03:46:44;;;;;;;9.40;5.93;;;;;;;;;;4963065;28;20885;-90
2023/07/24 03:49:10;;;;;;;10.43;6.50;;;;;;;;;;4946962;28;21056;-87
2023/07/24 03:51:35;;;;;;;7.97;5.27;;;;;;;;;;4950512;28;20425;-90
2023/07/24 03:54:01;;;;;;;9.53;6.10;;;;;;;;;;4958674;28;20414;-90
2023/07/24 03:56:27;;;;;;;10.27;6.40;;;;;;;;;;4963629;28;20524;-90
2023/07/24 03:58:53;;;;;;;8.40;5.43;;;;;;;;;;4964769;28;20526;-90
2023/07/24 04:01:19;;;;;;;8.50;6.33;;;;;;;;;;4952284;28;20474;-91
2023/07/24 04:03:45;;;;;;;11.23;6.83;;;;;;;;;;4955282;28;20457;-90
2023/07/24 04:06:11;;;;;;;10.87;6.20;;;;;;;;;;4949582;28;20477;-90
2023/07/24 04:08:37;;;;;;;9.40;6.73;;;;;;;;;;4971701;28;20444;-87
2023/07/24 04:11:04;;;;;;;9.43;5.90;;;;;;;;;;4974641;28;20422;-89
2023/07/24 04:13:30;;;;;;;8.00;5.40;;;;;;;;;;4964510;28;20434;-88
2023/07/24 04:15:58;;;;;;;9.60;6.43;;;;;;;;;;4963315;28;20528;-87
2023/07/24 04:18:24;;;;;;;10.77;6.10;;;;;;;;;;4952461;28;20437;-87
2023/07/24 04:20:50;;;;;;;9.00;6.73;;;;;;;;;;4947750;28;20488;-87
2023/07/24 04:23:16;;;;;;;10.20;7.63;;;;;;;;;;4964591;28;20953;-86
2023/07/24 04:25:42;;;;;;;9.97;6.40;;;;;;;;;;4968542;28;20557;-87
2023/07/24 04:28:08;;;;;;;10.33;6.57;;;;;;;;;;4958194;28;20414;-87
2023/07/24 04:30:34;;;;;;;11.50;6.60;;;;;;;;;;4947409;28;20473;-88
2023/07/24 04:33:02;;;;;;;7.30;5.70;;;;;;;;;;4948925;28;20433;-88
2023/07/24 04:35:28;;;;;;;9.77;5.90;;;;;;;;;;4959760;29;20512;-86
2023/07/24 04:37:54;;;;;;;9.60;6.57;;;;;;;;;;4990810;28;20462;-86
2023/07/24 04:40:20;;;;;;;10.73;7.57;;;;;;;;;;4959792;28;20421;-87
2023/07/24 04:42:46;;;;;;;11.27;7.43;;;;;;;;;;4963334;28;20553;-89
2023/07/24 04:45:12;;;;;;;9.30;5.50;;;;;;;;;;4949717;28;20461;-89
2023/07/24 04:47:38;;;;;;;11.37;5.90;;;;;;;;;;4966458;28;20505;-88
2023/07/24 04:50:05;;;;;;;7.90;6.17;;;;;;;;;;4967804;28;20421;-89
2023/07/24 04:52:31;;;;;;;11.40;5.90;;;;;;;;;;4957426;28;20522;-88
2023/07/24 04:55:00;;;;;;;8.60;5.97;;;;;;;;;;4955136;28;20406;-90
2023/07/24 04:57:26;;;;;;;9.07;6.40;;;;;;;;;;4958482;28;20940;-89
2023/07/24 04:59:52;;;;;;;8.93;6.30;;;;;;;;;;4968192;28;20476;-89
2023/07/24 05:02:18;;;;;;;9.23;5.20;;;;;;;;;;4945286;28;22155;-90
2023/07/24 05:04:44;;;;;;;10.47;6.70;;;;;;;;;;4944551;29;20490;-91
2023/07/24 05:07:14;;;;;;;7.77;5.57;;;;;;;;;;4947070;28;20442;-91
2023/07/24 05:09:40;;;;;;;11.33;6.93;;;;;;;;;;4945477;28;20476;-91
2023/07/24 05:12:06;;;;;;;8.90;6.40;;;;;;;;;;4953956;28;20426;-90
2023/07/24 05:14:32;;;;;;;10.83;6.87;;;;;;;;;;4949267;28;20436;-91
2023/07/24 05:16:58;;;;;;;10.53;6.13;;;;;;;;;;4950597;28;20470;-91
2023/07/24 05:19:24;;;;;;;9.07;6.37;;;;;;;;;;4924486;29;20432;-90
2023/07/24 05:21:50;;;;;;;9.37;6.30;;;;;;;;;;4915688;29;20448;-91
2023/07/24 05:24:16;;;;;;;9.07;6.37;;;;;;;;;;4913331;29;20440;-89
2023/07/24 05:26:42;;;;;;;9.83;6.13;;;;;;;;;;4915952;29;20543;-91
2023/07/24 05:29:08;;;;;;;9.50;6.20;;;;;;;;;;4933625;29;20519;-90
2023/07/24 05:31:35;;;;;;;8.03;5.40;;;;;;;;;;4933109;29;20473;-90
2023/07/24 05:34:03;;;;;;;11.83;6.67;;;;;;;;;;4926760;29;20444;-91
2023/07/24 05:36:29;;;;;;;9.53;6.43;;;;;;;;;;4933742;29;20481;-91
2023/07/24 05:38:56;;;;;;;10.57;6.30;;;;;;;;;;4911985;29;20445;-91
2023/07/24 05:41:22;;;;;;;7.33;5.10;;;;;;;;;;4895298;29;20420;-92
2023/07/24 05:43:48;;;;;;;12.20;6.67;;;;;;;;;;4912690;29;20443;-91
2023/07/24 05:46:15;;;;;;;11.63;5.73;;;;;;;;;;4885709;29;21053;-93
2023/07/24 05:48:41;;;;;;;10.10;6.23;;;;;;;;;;4909609;29;20526;-92
2023/07/24 05:51:09;;;;;;;8.97;5.93;;;;;;;;;;4936741;29;20956;-90
2023/07/24 05:53:35;;;;;;;10.33;6.10;;;;;;;;;;4948964;29;20926;-90
2023/07/24 05:56:02;;;;;;;9.47;5.90;;;;;;;;;;4929894;29;20489;-91
2023/07/24 05:58:28;;;;;;;7.93;5.57;;;;;;;;;;4932914;29;20423;-91
2023/07/24 06:00:55;;;;;;;12.37;6.80;;;;;;;;;;4930062;29;20427;-90
2023/07/24 06:03:21;;;;;;;10.53;7.10;;;;;;;;;;4932649;29;20444;-90
2023/07/24 06:05:47;;;;;;;9.50;6.43;;;;;;;;;;4932422;29;21041;-91
2023/07/24 06:08:13;;;;;;;9.20;5.77;;;;;;;;;;4939467;28;20486;-91
2023/07/24 06:10:39;;;;;;;9.57;6.40;;;;;;;;;;4966972;28;20433;-90
2023/07/24 06:13:05;;;;;;;9.27;6.70;;;;;;;;;;4960855;28;20449;-91
2023/07/24 06:15:31;;;;;;;13.23;7.10;;;;;;;;;;4952874;28;20438;-91
2023/07/24 06:17:57;;;;;;;9.73;6.47;;;;;;;;;;4952366;28;20434;-89
2023/07/24 06:20:23;;;;;;;13.13;6.40;;;;;;;;;;4946041;28;20426;-89
2023/07/24 06:22:49;;;;;;;12.20;6.30;;;;;;;;;;4947903;28;21022;-90
2023/07/24 06:25:15;;;;;;;8.60;6.07;;;;;;;;;;4952882;28;21224;-89
2023/07/24 06:27:45;;;;;;;10.37;6.30;;;;;;;;;;4950461;28;20418;-91
2023/07/24 06:30:11;;;;;;;9.43;6.20;;;;;;;;;;4963319;28;20424;-90
2023/07/24 06:32:37;;;;;;;8.17;6.00;;;;;;;;;;4948765;28;20439;-89
2023/07/24 06:35:04;;;;;;;10.47;6.70;;;;;;;;;;4949654;28;20449;-91
2023/07/24 06:37:30;;;;;;;9.10;7.07;;;;;;;;;;4950832;28;20437;-92
2023/07/24 06:39:56;;;;;;;9.13;7.10;;;;;;;;;;4936978;28;20466;-91
2023/07/24 06:42:22;;;;;;;11.00;6.97;;;;;;;;;;4953735;28;20442;-92
2023/07/24 06:44:48;;;;;;;8.90;6.00;;;;;;;;;;4969533;28;20510;-91
2023/07/24 06:47:14;;;;;;;9.90;7.03;;;;;;;;;;4955815;28;20430;-92
2023/07/24 06:49:40;;;;;;;10.53;6.60;;;;;;;;;;4949337;28;20436;-91
2023/07/24 06:52:06;;;;;;;11.70;8.37;;;;;;;;;;4951226;28;20438;-89
2023/07/24 06:54:32;;;;;;;11.57;7.63;;;;;;;;;;4951921;28;20465;-92
2023/07/24 06:57:01;;;;;;;9.30;7.27;;;;;;;;;;4942993;29;20518;-91
2023/07/24 06:59:28;;;;;;;10.87;6.70;;;;;;;;;;4967762;28;20435;-90
2023/07/24 07:01:54;;;;;;;12.23;6.80;;;;;;;;;;4946699;28;20828;-90
2023/07/24 07:04:20;;;;;;;8.50;6.83;;;;;;;;;;4946148;28;20419;-91
2023/07/24 07:06:46;;;;;;;11.37;7.33;;;;;;;;;;4961012;29;20486;-91
2023/07/24 07:09:12;;;;;;;11.97;7.30;;;;;;;;;;4953228;28;20528;-90
2023/07/24 07:11:40;;;;;;;10.23;8.03;;;;;;;;;;4951163;28;20596;-91
2023/07/24 07:14:08;;;;;;;11.10;7.40;;;;;;;;;;4957621;28;20493;-91
2023/07/24 07:16:34;;;;;;;13.03;8.40;;;;;;;;;;4936537;28;20437;-90
2023/07/24 07:19:00;;;;;;;10.77;7.10;;;;;;;;;;4959578;28;20430;-89
2023/07/24 07:21:26;;;;;;;11.80;7.10;;;;;;;;;;4951316;29;20447;-91
2023/07/24 07:23:52;;;;;;;9.87;6.93;;;;;;;;;;4947292;28;20485;-90
2023/07/24 07:26:18;;;;;;;10.97;7.70;;;;;;;;;;4949278;28;20458;-91
2023/07/24 07:28:44;;;;;;;8.93;6.90;;;;;;;;;;4946832;28;20434;-91
2023/07/24 07:31:11;;;;;;;11.10;7.20;;;;;;;;;;4950650;28;20857;-91
2023/07/24 07:33:37;;;;;;;11.80;6.97;;;;;;;;;;4949471;28;20481;-91
2023/07/24 07:36:04;;;;;;;12.20;6.50;;;;;;;;;;4947305;28;20438;-92
2023/07/24 07:38:30;;;;;;;8.87;7.73;;;;;;;;;;4971096;28;20913;-90
2023/07/24 07:40:56;;;;;;;12.07;7.70;;;;;;;;;;4970971;28;20440;-91
2023/07/24 07:43:22;;;;;;;8.13;6.47;;;;;;;;;;4951202;28;20422;-93
2023/07/24 07:45:48;;;;;;;10.47;7.03;;;;;;;;;;4952987;28;20465;-91
2023/07/24 07:48:14;;;;;;;9.50;6.53;;;;;;;;;;4973838;28;20508;-91
2023/07/24 07:50:40;;;;;;;10.70;8.00;;;;;;;;;;4957732;28;20429;-92
2023/07/24 07:53:06;;;;;;;12.17;6.83;;;;;;;;;;4953244;29;20524;-91
2023/07/24 07:55:32;;;;;;;11.23;7.73;;;;;;;;;;4955757;28;20453;-91
2023/07/24 07:57:58;;;;;;;10.50;7.00;;;;;;;;;;4968274;28;20421;-90
2023/07/24 08:00:24;;;;;;;9.60;6.97;;;;;;;;;;4966568;28;20428;-90
2023/07/24 08:02:50;;;;;;;9.37;7.47;;;;;;;;;;4955324;28;20442;-91
2023/07/24 08:05:16;;;;;;;12.93;8.77;;;;;;;;;;4971925;28;20464;-91
2023/07/24 08:07:42;;;;;;;8.37;7.00;;;;;;;;;;4971932;28;20514;-92
2023/07/24 08:10:09;;;;;;;11.77;8.33;;;;;;;;;;4973785;28;20453;-91
2023/07/24 08:12:35;;;;;;;11.60;7.53;;;;;;;;;;4956774;28;20418;-92
2023/07/24 08:15:02;;;;;;;10.27;7.60;;;;;;;;;;4954287;28;20441;-90
2023/07/24 08:17:28;;;;;;;12.23;6.83;;;;;;;;;;5000547;28;20429;-91
2023/07/24 08:19:54;;;;;;;11.73;8.37;;;;;;;;;;4960180;28;20434;-92
2023/07/24 08:22:20;;;;;;;11.90;9.23;;;;;;;;;;4919381;29;20872;-92
2023/07/24 08:24:46;;;;;;;10.40;7.30;;;;;;;;;;4927859;29;20459;-91
2023/07/24 08:27:14;;;;;;;10.20;7.40;;;;;;;;;;4934208;29;20423;-92
2023/07/24 08:29:40;;;;;;;11.17;7.77;;;;;;;;;;4933856;29;20444;-92
2023/07/24 08:32:07;;;;;;;11.27;7.57;;;;;;;;;;4937298;29;20491;-92
2023/07/24 08:34:33;;;;;;;12.70;8.07;;;;;;;;;;4923477;29;20446;-91
2023/07/24 08:36:59;;;;;;;11.13;7.70;;;;;;;;;;4920726;29;20456;-92
2023/07/24 08:39:26;;;;;;;11.43;7.90;;;;;;;;;;4928959;29;20412;-91
2023/07/24 08:41:51;;;;;;;12.07;8.00;;;;;;;;;;4913653;29;20423;-91
2023/07/24 08:44:17;;;;;;;11.13;8.63;;;;;;;;;;4911647;29;20524;-95
2023/07/24 08:46:45;;;;;;;13.27;7.90;;;;;;;;;;4899288;29;20520;-94
2023/07/24 08:49:12;;;;;;;10.23;7.60;;;;;;;;;;4946351;29;20435;-94
2023/07/24 08:51:38;;;;;;;10.60;7.70;;;;;;;;;;4921660;28;20438;-95
2023/07/24 08:54:04;;;;;;;10.73;6.60;;;;;;;;;;4960144;28;20443;-94
2023/07/24 08:56:31;;;;;;;12.60;9.23;;;;;;;;;;4955398;28;20454;-95
2023/07/24 08:58:57;;;;;;;12.93;7.20;;;;;;;;;;4977847;28;20785;-95
2023/07/24 09:01:23;;;;;;;10.50;8.00;;;;;;;;;;4966053;28;20447;-95
2023/07/24 09:03:49;;;;;;;15.30;7.97;;;;;;;;;;4948388;29;20451;-95
2023/07/24 09:06:15;;;;;;;8.20;7.30;;;;;;;;;;4953783;29;20478;-95
2023/07/24 09:08:58;;;;;;;12.57;7.20;;;;;;;;;;4963229;28;20437;-95
2023/07/24 09:11:24;;;;;;;13.37;6.80;;;;;;;;;;4953383;28;20533;-94
2023/07/24 09:13:50;;;;;;;8.07;5.73;;;;;;;;;;4955729;28;20418;-93
2023/07/24 09:16:23;;;;;;;8.77;6.20;;;;;;;;;;4953466;28;20443;-93
2023/07/24 09:18:51;;;;;;;8.47;6.37;;;;;;;;;;4956047;28;20422;-93
2023/07/24 09:21:17;;;;;;;9.90;6.37;;;;;;;;;;4955899;28;20441;-93
2023/07/24 09:23:43;;;;;;;9.50;5.97;;;;;;;;;;4956839;28;20417;-93
2023/07/24 09:26:09;;;;;;;10.87;6.33;;;;;;;;;;4953215;28;20907;-91
2023/07/24 09:28:38;;;;;;;8.80;5.83;;;;;;;;;;4952113;28;20434;-91
2023/07/24 09:31:04;;;;;;;8.43;6.03;;;;;;;;;;4952263;28;21021;-90
2023/07/24 09:33:40;;;;;;;9.33;6.30;;;;;;;;;;4955504;28;20430;-89
2023/07/24 09:36:08;;;;;;;8.67;7.00;;;;;;;;;;4953722;28;20437;-89
2023/07/24 09:38:34;;;;;;;9.33;6.73;;;;;;;;;;4952207;28;20441;-91
2023/07/24 09:41:03;;;;;;;10.13;7.60;;;;;;;;;;4952351;28;20425;-90
2023/07/24 09:43:29;;;;;;;8.50;5.87;;;;;;;;;;4949120;28;20520;-88
2023/07/24 09:45:55;;;;;;;6.70;5.20;;;;;;;;;;4953089;28;20450;-92
2023/07/24 09:48:22;;;;;;;8.77;5.40;;;;;;;;;;4958344;28;20479;-95
2023/07/24 09:50:49;;;;;;;7.43;5.73;;;;;;;;;;4970408;28;20485;-91
2023/07/24 09:53:18;;;;;;;10.27;5.73;;;;;;;;;;4956827;28;20448;-91
2023/07/24 09:56:04;;;;;;;10.67;7.03;;;;;;;;;;4950600;28;20431;-95
2023/07/24 09:58:31;;;;;;;9.00;5.50;;;;;;;;;;4956035;28;20481;-93
2023/07/24 10:00:57;;;;;;;9.27;6.00;;;;;;;;;;4951205;28;20453;-94
2023/07/24 10:03:23;;;;;;;8.83;5.17;;;;;;;;;;4958625;28;20448;-95
2023/07/24 10:05:50;;;;;;;6.77;5.50;;;;;;;;;;4956604;28;20803;-95
2023/07/24 10:08:16;;;;;;;8.73;5.70;;;;;;;;;;4953256;28;20438;-93
2023/07/24 10:10:43;;;;;;;5.93;5.33;;;;;;;;;;4953646;28;20434;-91
2023/07/24 10:13:10;;;;;;;6.97;5.60;;;;;;;;;;4951943;28;20446;-91
2023/07/24 10:15:37;;;;;;;6.70;5.57;;;;;;;;;;4951820;28;20533;-92
2023/07/24 10:18:03;;;;;;;8.37;5.90;;;;;;;;;;4952042;28;20490;-91
2023/07/24 10:20:33;;;;;;;7.57;5.00;;;;;;;;;;4953207;28;20437;-91
2023/07/24 10:23:01;;;;;;;7.50;5.43;;;;;;;;;;4956356;28;20441;-92
2023/07/24 10:25:31;;;;;;;9.70;6.93;;;;;;;;;;4968252;28;20525;-93
2023/07/24 10:28:02;;;;;;;9.53;6.17;;;;;;;;;;4953535;28;20976;-94
2023/07/24 10:30:31;;;;;;;7.53;6.00;;;;;;;;;;4955903;28;21000;-94
2023/07/24 10:33:16;;;;;;;8.30;6.40;;;;;;;;;;4955671;28;20430;-95
2023/07/24 10:35:45;;;;;;;8.67;6.63;;;;;;;;;;4956844;28;20457;-93
2023/07/24 10:38:11;;;;;;;7.27;5.40;;;;;;;;;;4947819;28;20432;-92
2023/07/24 10:40:37;;;;;;;9.60;7.07;;;;;;;;;;4957356;28;20468;-94
2023/07/24 10:43:07;;;;;;;9.00;6.37;;;;;;;;;;4954997;28;20417;-94
2023/07/24 10:45:49;;;;;;;11.83;6.10;;;;;;;;;;4913329;29;20524;-94
2023/07/24 10:48:16;;;;;;;12.23;7.30;;;;;;;;;;4908978;29;20436;-94
2023/07/24 10:50:42;;;;;;;11.37;6.80;;;;;;;;;;4897573;29;20438;-93
2023/07/24 10:53:13;;;;;;;12.57;7.37;;;;;;;;;;4917809;29;20493;-92
2023/07/24 10:55:39;;;;;;;12.20;6.53;;;;;;;;;;4913829;29;20429;-93
2023/07/24 10:58:06;;;;;;;8.70;6.83;;;;;;;;;;4917281;29;20420;-92
2023/07/24 11:00:32;;;;;;;9.30;6.70;;;;;;;;;;4897615;29;20448;-92
2023/07/24 11:02:59;;;;;;;10.70;6.07;;;;;;;;;;4911668;29;20488;-94
2023/07/24 11:05:27;;;;;;;9.90;6.30;;;;;;;;;;4917141;29;20458;-92
2023/07/24 11:07:53;;;;;;;8.70;6.37;;;;;;;;;;4898741;29;20440;-91
2023/07/24 11:10:22;;;;;;;12.70;7.23;;;;;;;;;;4910978;29;20964;-91
2023/07/24 11:12:48;;;;;;;8.10;6.10;;;;;;;;;;4898003;29;20417;-91
2023/07/24 11:15:14;;;;;;;8.67;6.00;;;;;;;;;;4915033;29;20424;-91
2023/07/24 11:17:40;;;;;;;10.73;7.53;;;;;;;;;;4960727;28;20505;-92
2023/07/24 11:20:08;;;;;;;9.47;6.90;;;;;;;;;;4959807;28;20787;-90
2023/07/24 11:22:34;;;;;;;10.37;6.63;;;;;;;;;;4969912;28;20500;-93
2023/07/24 11:25:01;;;;;;;7.53;6.27;;;;;;;;;;4954557;28;20478;-90
2023/07/24 11:27:27;;;;;;;8.97;6.53;;;;;;;;;;4965615;28;20433;-90
2023/07/24 11:29:53;;;;;;;7.73;5.87;;;;;;;;;;4975253;28;20500;-89
2023/07/24 11:32:42;;;;;;;11.70;6.40;;;;;;;;;;4942683;28;20417;-90
2023/07/24 11:35:08;;;;;;;8.70;6.00;;;;;;;;;;4961216;28;21295;-88
2023/07/24 11:37:35;;;;;;;8.43;5.93;;;;;;;;;;4954527;28;20509;-90
2023/07/24 11:40:12;;;;;;;8.50;5.40;;;;;;;;;;4950691;28;20438;-89
2023/07/24 11:42:39;;;;;;;9.07;5.93;;;;;;;;;;4966088;28;20409;-89
2023/07/24 11:45:05;;;;;;;9.40;5.67;;;;;;;;;;4951408;28;20505;-90
2023/07/24 11:47:31;;;;;;;8.00;5.97;;;;;;;;;;4962560;28;20509;-91
2023/07/24 11:50:00;;;;;;;7.37;5.83;;;;;;;;;;4958886;29;20430;-90
2023/07/24 11:52:26;;;;;;;7.80;6.17;;;;;;;;;;4949108;28;20433;-91
2023/07/24 11:55:00;;;;;;;10.77;5.93;;;;;;;;;;4960146;28;20434;-89
2023/07/24 11:57:27;;;;;;;10.77;6.70;;;;;;;;;;4947426;29;20452;-88
2023/07/24 11:59:53;;;;;;;8.00;5.93;;;;;;;;;;4937058;29;20478;-88
2023/07/24 12:02:22;;;;;;;13.23;7.00;;;;;;;;;;4952341;28;20517;-90
2023/07/24 12:04:53;;;;;;;8.87;5.90;;;;;;;;;;4956960;28;20517;-90
2023/07/24 12:07:19;;;;;;;10.60;6.67;;;;;;;;;;4966115;28;20442;-90
2023/07/24 12:09:51;;;;;;;6.80;6.10;;;;;;;;;;4975289;28;20796;-90
2023/07/24 12:12:17;;;;;;;8.97;5.83;;;;;;;;;;4975731;28;20928;-92
2023/07/24 12:14:43;;;;;;;9.10;5.70;;;;;;;;;;4968941;28;20430;-90
2023/07/24 12:17:12;;;;;;;7.03;5.53;;;;;;;;;;4957045;28;20421;-89
2023/07/24 12:19:38;;;;;;;7.47;5.47;;;;;;;;;;4962126;28;20453;-90
2023/07/24 12:22:04;;;;;;;8.13;5.33;;;;;;;;;;4953612;28;20426;-90
2023/07/24 12:24:30;;;;;;;7.30;5.73;;;;;;;;;;4958016;28;20426;-91
2023/07/24 12:26:56;;;;;;;10.17;7.23;;;;;;;;;;4954628;28;20418;-91
2023/07/24 12:29:22;;;;;;;8.40;5.77;;;;;;;;;;4957020;28;20418;-91
2023/07/24 12:31:48;;;;;;;8.80;5.17;;;;;;;;;;4957753;28;20426;-91
2023/07/24 12:34:14;;;;;;;6.50;5.03;;;;;;;;;;4960177;28;20486;-91
2023/07/24 12:36:40;;;;;;;9.17;5.87;;;;;;;;;;4956275;28;20418;-90
2023/07/24 12:39:07;;;;;;;7.47;5.13;;;;;;;;;;4965078;28;20437;-90
2023/07/24 12:41:33;;;;;;;8.90;5.90;;;;;;;;;;4957513;28;20422;-91
2023/07/24 12:43:59;;;;;;;8.43;5.50;;;;;;;;;;4958030;28;20433;-92
2023/07/24 12:46:25;;;;;;;7.47;5.00;;;;;;;;;;4971986;28;20469;-92
2023/07/24 12:48:51;;;;;;;9.00;6.47;;;;;;;;;;4973456;28;20410;-90
2023/07/24 12:51:17;;;;;;;7.87;5.13;;;;;;;;;;4955304;28;20451;-92
2023/07/24 12:53:43;;;;;;;6.73;5.53;;;;;;;;;;4957890;28;20493;-91
2023/07/24 12:56:09;;;;;;;7.03;5.10;;;;;;;;;;4931675;29;20465;-91
2023/07/24 12:58:35;;;;;;;7.00;6.00;;;;;;;;;;4901673;29;20445;-91
2023/07/24 13:01:01;;;;;;;7.73;5.50;;;;;;;;;;4907542;29;20443;-93
2023/07/24 13:03:27;;;;;;;6.47;4.87;;;;;;;;;;4916631;29;20437;-92
2023/07/24 13:05:53;;;;;;;7.80;5.60;;;;;;;;;;4927394;29;20466;-93
2023/07/24 13:08:21;;;;;;;7.67;5.17;;;;;;;;;;4955152;29;20429;-92
2023/07/24 13:10:49;;;;;;;7.00;5.07;;;;;;;;;;4956638;29;20423;-93
2023/07/24 13:13:15;;;;;;;6.70;5.10;;;;;;;;;;4916690;29;20540;-92
2023/07/24 13:15:41;;;;;;;6.30;5.00;;;;;;;;;;4897559;29;20489;-93
2023/07/24 13:18:07;;;;;;;5.40;4.70;;;;;;;;;;4912349;29;20457;-92
2023/07/24 13:20:33;;;;;;;7.53;5.53;;;;;;;;;;4896532;29;20434;-92
2023/07/24 13:22:59;;;;;;;6.73;4.77;;;;;;;;;;4895768;29;20485;-92
2023/07/24 13:25:25;;;;;;;6.53;5.10;;;;;;;;;;4894490;29;20473;-92
2023/07/24 13:27:52;;;;;;;6.60;4.97;;;;;;;;;;4933700;29;20492;-93
2023/07/24 13:30:18;;;;;;;6.50;4.70;;;;;;;;;;4934985;29;20427;-93
2023/07/24 13:32:44;;;;;;;7.93;5.20;;;;;;;;;;4914782;29;20464;-92
2023/07/24 13:35:10;;;;;;;7.30;4.27;;;;;;;;;;4920220;29;20796;-91
2023/07/24 13:37:38;;;;;;;6.83;5.07;;;;;;;;;;4936872;29;20431;-92
2023/07/24 13:40:04;;;;;;;8.10;5.00;;;;;;;;;;4938262;29;20459;-93
2023/07/24 13:42:30;;;;;;;7.10;5.00;;;;;;;;;;4926597;29;20439;-91
2023/07/24 13:44:56;;;;;;;6.63;4.40;;;;;;;;;;4945699;29;20519;-90
2023/07/24 13:47:22;;;;;;;5.83;4.70;;;;;;;;;;4930289;29;20444;-91
2023/07/24 13:49:48;;;;;;;7.93;4.30;;;;;;;;;;4935223;29;20446;-91
2023/07/24 13:52:14;;;;;;;5.73;4.33;;;;;;;;;;4936314;28;20431;-92
2023/07/24 13:54:40;;;;;;;12.17;5.00;;;;;;;;;;4931661;29;20495;-92
2023/07/24 13:57:09;;;;;;;6.07;4.87;;;;;;;;;;4948079;28;20442;-92
2023/07/24 13:59:37;;;;;;;10.03;6.83;;;;;;;;;;4939157;29;20431;-91
2023/07/24 14:02:04;;;;;;;5.70;4.00;;;;;;;;;;4958895;28;20414;-92
2023/07/24 14:04:30;;;;;;;5.50;4.17;;;;;;;;;;4952319;29;20446;-92
2023/07/24 14:06:56;;;;;;;6.13;4.67;;;;;;;;;;4951577;28;20469;-93
2023/07/24 14:09:22;;;;;;;5.93;4.23;;;;;;;;;;4973788;28;20421;-93
2023/07/24 14:11:48;;;;;;;4.53;3.73;;;;;;;;;;4975953;28;20439;-91
2023/07/24 14:14:16;;;;;;;5.63;4.63;;;;;;;;;;4952098;29;20470;-93
2023/07/24 14:16:42;;;;;;;4.63;3.97;;;;;;;;;;4955470;28;20430;-92
2023/07/24 14:19:08;;;;;;;5.20;4.33;;;;;;;;;;4956115;28;20437;-92
2023/07/24 14:21:34;;;;;;;5.37;3.90;;;;;;;;;;4955902;28;20438;-92
2023/07/24 14:24:00;;;;;;;5.87;3.83;;;;;;;;;;4956227;28;20930;-92
2023/07/24 14:26:26;;;;;;;4.80;4.13;;;;;;;;;;4979198;28;20465;-93
2023/07/24 14:28:52;;;;;;;4.80;3.60;;;;;;;;;;4951838;29;20501;-92
2023/07/24 14:31:18;;;;;;;4.53;3.70;;;;;;;;;;4953675;29;20435;-92
2023/07/24 14:33:44;;;;;;;5.30;4.20;;;;;;;;;;4956154;28;20422;-91
2023/07/24 14:36:10;;;;;;;5.57;4.00;;;;;;;;;;4971632;28;20437;-93